createdAt,value
2022-11-24T00:00:52.924Z,100004.84
2022-11-24T00:03:19.643Z,100010.16
2022-11-24T00:05:46.367Z,100006.78
2022-11-24T00:08:13.271Z,100001.63
2022-11-24T00:10:39.860Z,100001.63
2022-11-24T00:13:06.525Z,100006.13
2022-11-24T00:15:33.202Z,100014.69
2022-11-24T00:17:59.784Z,100009.53
2022-11-24T00:20:27.261Z,100012.09
2022-11-24T00:22:53.888Z,100016.44
2022-11-24T00:25:20.433Z,100006.94
2022-11-24T00:27:47.037Z,100020.00
2022-11-24T00:30:13.881Z,100011.47
2022-11-24T00:32:40.453Z,100017.56
2022-11-24T00:35:09.041Z,100016.63
2022-11-24T00:37:35.604Z,100016.44
2022-11-24T00:40:02.181Z,100006.94
2022-11-24T00:42:28.851Z,100020.66
2022-11-24T00:44:55.464Z,100012.91
2022-11-24T00:47:22.038Z,100028.22
2022-11-24T00:49:48.603Z,100032.56
2022-11-24T00:52:15.132Z,100037.72
2022-11-24T00:54:41.716Z,100029.97
2022-11-24T00:57:08.259Z,100038.34
2022-11-24T00:59:34.850Z,100032.25
2022-11-24T01:02:01.464Z,100032.25
2022-11-24T01:04:28.200Z,100029.66
2022-11-24T01:06:54.723Z,100036.28
2022-11-24T01:09:21.358Z,100048.34
2022-11-24T01:12:04.086Z,100049.81
2022-11-24T01:14:32.889Z,100045.47
2022-11-24T01:16:59.817Z,100049.81
2022-11-24T01:19:26.646Z,100054.31
2022-11-24T01:21:53.454Z,100048.34
2022-11-24T01:24:19.987Z,100052.88
2022-11-24T01:26:46.984Z,100055.63
2022-11-24T01:29:13.840Z,100054.81
2022-11-24T01:31:40.919Z,100057.53
2022-11-24T01:34:07.578Z,100060.13
2022-11-24T01:36:34.558Z,100061.28
2022-11-24T01:39:01.156Z,100062.22
2022-11-24T01:41:29.131Z,100064.97
2022-11-24T01:43:56.927Z,100061.75
2022-11-24T01:46:35.314Z,100066.75
2022-11-24T01:49:14.564Z,100063.53
2022-11-24T01:51:48.953Z,100065.94
2022-11-24T01:54:25.133Z,100065.94
2022-11-24T01:56:55.886Z,100076.06
2022-11-24T01:59:25.319Z,100076.88
2022-11-24T02:01:53.379Z,100077.88
2022-11-24T02:04:26.751Z,100086.25
2022-11-24T02:06:57.797Z,100087.06
2022-11-24T02:09:32.465Z,100084.81
2022-11-24T02:12:01.093Z,100084.81
2022-11-24T02:14:28.065Z,100077.88
2022-11-24T02:16:54.647Z,100085.44
2022-11-24T02:19:41.632Z,100088.66
2022-11-24T02:22:18.601Z,100097.03
2022-11-24T02:24:56.246Z,100094.47
2022-11-24T02:27:23.416Z,100101.25
2022-11-24T02:29:50.507Z,100116.38
2022-11-24T02:32:18.634Z,100118.66
2022-11-24T02:34:45.294Z,100109.94
2022-11-24T02:37:11.857Z,100116.56
2022-11-24T02:39:38.497Z,100115.75
2022-11-24T02:42:09.688Z,100104.44
2022-11-24T02:44:45.521Z,100109.28
2022-11-24T02:47:13.310Z,100112.69
2022-11-24T02:49:40.744Z,100111.06
2022-11-24T02:52:07.660Z,100119.16
2022-11-24T02:54:34.909Z,100126.38
2022-11-24T02:57:01.966Z,100124.13
2022-11-24T02:59:28.546Z,100125.75
2022-11-24T03:01:55.159Z,100132.53
2022-11-24T03:04:21.761Z,100134.28
2022-11-24T03:06:48.392Z,100132.53
2022-11-24T03:09:14.964Z,100125.44
2022-11-24T03:11:41.580Z,100126.88
2022-11-24T03:14:08.701Z,100129.28
2022-11-24T03:16:35.303Z,100138.47
2022-11-24T03:19:02.655Z,100133.31
2022-11-24T03:21:29.378Z,100131.38
2022-11-24T03:23:56.127Z,100127.84
2022-11-24T03:26:24.663Z,100128.97
2022-11-24T03:28:55.302Z,100126.41
2022-11-24T03:31:22.893Z,100130.91
2022-11-24T03:33:49.645Z,100129.47
2022-11-24T03:36:16.872Z,100130.41
2022-11-24T03:38:43.936Z,100138.97
2022-11-24T03:41:10.718Z,100141.72
2022-11-24T03:43:43.171Z,100144.28
2022-11-24T03:46:10.558Z,100151.06
2022-11-24T03:48:37.128Z,100154.44
2022-11-24T03:51:04.136Z,100145.06
2022-11-24T03:53:33.553Z,100146.19
2022-11-24T03:56:00.926Z,100151.38
2022-11-24T03:58:28.292Z,100150.72
2022-11-24T04:00:56.121Z,100145.72
2022-11-24T04:03:23.214Z,100150.25
2022-11-24T04:05:49.961Z,100150.38
2022-11-24T04:08:17.288Z,100158.47
2022-11-24T04:10:43.933Z,100154.59
2022-11-24T04:13:16.236Z,100159.25
2022-11-24T04:15:44.090Z,100169.72
2022-11-24T04:18:12.479Z,100175.03
2022-11-24T04:20:40.684Z,100177.47
2022-11-24T04:23:08.055Z,100174.06
2022-11-24T04:25:34.703Z,100177.47
2022-11-24T04:28:01.293Z,100184.88
2022-11-24T04:30:29.141Z,100188.91
2022-11-24T04:32:57.408Z,100193.13
2022-11-24T04:35:24.058Z,100193.44
2022-11-24T04:37:50.692Z,100196.66
2022-11-24T04:40:17.930Z,100201.50
2022-11-24T04:42:44.663Z,100209.09
2022-11-24T04:45:11.612Z,100199.72
2022-11-24T04:47:38.872Z,100215.38
2022-11-24T04:50:07.766Z,100212.16
2022-11-24T04:52:34.563Z,100211.50
2022-11-24T04:55:01.564Z,100226.00
2022-11-24T04:57:28.156Z,100214.72
2022-11-24T04:59:55.542Z,100225.03
2022-11-24T05:02:23.262Z,100222.47
2022-11-24T05:04:50.231Z,100235.50
2022-11-24T05:07:19.459Z,100234.06
2022-11-24T05:10:05.966Z,100228.41
2022-11-24T05:12:32.953Z,100237.25
2022-11-24T05:15:01.296Z,100242.72
2022-11-24T05:17:38.759Z,100235.31
2022-11-24T05:20:07.226Z,100244.00
2022-11-24T05:22:33.877Z,100245.78
2022-11-24T05:25:00.508Z,100241.59
2022-11-24T05:27:27.193Z,100245.94
2022-11-24T05:29:53.961Z,100254.00
2022-11-24T05:32:20.553Z,100256.28
2022-11-24T05:34:47.332Z,100258.41
2022-11-24T05:37:14.058Z,100260.34
2022-11-24T05:39:40.690Z,100254.72
2022-11-24T05:42:27.639Z,100260.38
2022-11-24T05:44:54.303Z,100266.97
2022-11-24T05:47:21.554Z,100260.69
2022-11-24T05:49:48.251Z,100260.69
2022-11-24T05:52:15.846Z,100261.50
2022-11-24T05:54:42.446Z,100276.31
2022-11-24T05:57:09.019Z,100270.22
2022-11-24T05:59:35.767Z,100279.91
2022-11-24T06:02:03.119Z,100282.00
2022-11-24T06:04:31.689Z,100280.72
2022-11-24T06:06:58.557Z,100296.53
2022-11-24T06:09:25.190Z,100302.03
2022-11-24T06:11:51.849Z,100300.09
2022-11-24T06:14:18.414Z,100303.16
2022-11-24T06:16:44.974Z,100309.94
2022-11-24T06:19:11.858Z,100326.25
2022-11-24T06:21:38.377Z,100319.97
2022-11-24T06:24:05.547Z,100329.31
2022-11-24T06:26:32.150Z,100337.03
2022-11-24T06:28:58.823Z,100330.44
2022-11-24T06:31:25.621Z,100345.91
2022-11-24T06:33:52.626Z,100342.38
2022-11-24T06:36:19.252Z,100352.53
2022-11-24T06:38:46.899Z,100358.50
2022-11-24T06:41:15.961Z,100364.31
2022-11-24T06:43:42.657Z,100364.97
2022-11-24T06:46:10.129Z,100369.00
2022-11-24T06:48:37.152Z,100371.44
2022-11-24T06:51:08.414Z,100379.03
2022-11-24T06:53:38.106Z,100384.69
2022-11-24T06:56:15.796Z,100390.47
2022-11-24T06:58:48.881Z,100394.69
2022-11-24T07:01:20.331Z,100414.88
2022-11-24T07:03:48.263Z,100413.75
2022-11-24T07:06:16.322Z,100426.38
2022-11-24T07:08:43.730Z,100420.06
2022-11-24T07:11:15.756Z,100435.41
2022-11-24T07:13:43.808Z,100433.63
2022-11-24T07:16:31.274Z,100429.41
2022-11-24T07:18:58.566Z,100439.09
2022-11-24T07:21:26.060Z,100440.06
2022-11-24T07:23:54.856Z,100449.59
2022-11-24T07:26:22.739Z,100449.59
2022-11-24T07:28:49.679Z,100451.38
2022-11-24T07:31:19.203Z,100457.34
2022-11-24T07:33:53.807Z,100459.13
2022-11-24T07:36:20.631Z,100458.13
2022-11-24T07:38:48.280Z,100465.88
2022-11-24T07:41:16.718Z,100469.44
2022-11-24T07:43:43.390Z,100478.97
2022-11-24T07:46:12.587Z,100476.38
2022-11-24T07:48:41.405Z,100480.72
2022-11-24T07:51:09.120Z,100484.28
2022-11-24T07:53:36.863Z,100494.63
2022-11-24T07:56:05.588Z,100497.22
2022-11-24T07:58:34.914Z,100504.78
2022-11-24T08:01:11.330Z,100503.03
2022-11-24T08:03:38.594Z,100503.03
2022-11-24T08:06:23.938Z,100509.78
2022-11-24T08:08:52.012Z,100508.03
2022-11-24T08:11:18.573Z,100508.03
2022-11-24T08:13:45.345Z,100511.41
2022-11-24T08:16:17.513Z,100520.81
2022-11-24T08:18:49.371Z,100518.34
2022-11-24T08:21:16.011Z,100527.72
2022-11-24T08:23:42.692Z,100525.97
2022-11-24T08:26:17.707Z,100530.31
2022-11-24T08:28:45.856Z,100528.53
2022-11-24T08:31:15.298Z,100535.00
2022-11-24T08:33:42.660Z,100539.19
2022-11-24T08:36:11.922Z,100537.44
2022-11-24T08:38:39.038Z,100540.66
2022-11-24T08:41:08.801Z,100543.09
2022-11-24T08:43:35.836Z,100560.06
2022-11-24T08:46:05.487Z,100555.56
2022-11-24T08:48:32.794Z,100559.44
2022-11-24T08:51:00.471Z,100559.28
2022-11-24T08:53:27.061Z,100564.31
2022-11-24T08:55:53.741Z,100572.53
2022-11-24T08:58:20.670Z,100572.25
2022-11-24T09:00:47.268Z,100581.28
2022-11-24T09:03:14.478Z,100579.09
2022-11-24T09:05:51.721Z,100584.72
2022-11-24T09:08:19.496Z,100595.72
2022-11-24T09:10:46.811Z,100591.06
2022-11-24T09:13:13.504Z,100587.19
2022-11-24T09:15:40.180Z,100588.00
2022-11-24T09:18:06.903Z,100592.06
2022-11-24T09:20:33.619Z,100595.13
2022-11-24T09:23:00.671Z,100599.97
2022-11-24T09:25:27.388Z,100599.03
2022-11-24T09:27:54.651Z,100598.88
2022-11-24T09:30:21.409Z,100603.06
2022-11-24T09:32:48.122Z,100611.47
2022-11-24T09:35:15.979Z,100613.91
2022-11-24T09:37:44.846Z,100618.09
2022-11-24T09:40:16.561Z,100622.31
2022-11-24T09:42:53.692Z,100619.56
2022-11-24T09:46:05.188Z,100622.00
2022-11-24T09:48:39.237Z,100621.84
2022-11-24T09:51:09.587Z,100629.41
2022-11-24T09:53:45.101Z,100630.09
2022-11-24T09:56:21.019Z,100635.59
2022-11-24T09:59:02.710Z,100642.09
2022-11-24T10:01:37.669Z,100637.38
2022-11-24T10:04:15.042Z,100635.44
2022-11-24T10:06:53.032Z,100648.88
2022-11-24T10:09:57.085Z,100644.19
2022-11-24T10:12:42.168Z,100655.34
2022-11-24T10:15:30.499Z,100659.56
2022-11-24T10:18:18.871Z,100665.09
2022-11-24T10:21:05.962Z,100668.81
2022-11-24T10:23:39.720Z,100676.09
2022-11-24T10:26:38.250Z,100682.91
2022-11-24T10:29:41.291Z,100684.84
2022-11-24T10:32:17.648Z,100687.94
2022-11-24T10:34:46.259Z,100686.63
2022-11-24T10:37:37.867Z,100703.63
2022-11-24T10:40:04.538Z,100701.19
2022-11-24T10:42:36.968Z,100705.59
2022-11-24T10:45:11.306Z,100702.47
2022-11-24T10:47:38.963Z,100708.63
2022-11-24T10:50:25.326Z,100711.56
2022-11-24T10:53:13.615Z,100716.25
2022-11-24T10:55:55.778Z,100715.94
2022-11-24T10:58:37.383Z,100717.22
2022-11-24T11:01:13.821Z,100717.72
2022-11-24T11:03:55.801Z,100713.47
2022-11-24T11:06:22.305Z,100719.47
2022-11-24T11:08:48.961Z,100721.56
2022-11-24T11:11:26.754Z,100725.16
2022-11-24T11:14:01.614Z,100728.22
2022-11-24T11:16:51.864Z,100735.50
2022-11-24T11:19:49.107Z,100739.91
2022-11-24T11:22:31.799Z,100740.53
2022-11-24T11:25:03.178Z,100732.56
2022-11-24T11:27:29.856Z,100731.56
2022-11-24T11:35:51.178Z,100744.69
2022-11-24T11:38:18.815Z,100749.44
2022-11-24T11:40:49.160Z,100753.16
2022-11-24T11:43:45.842Z,100758.47
2022-11-24T11:46:16.048Z,100761.91
2022-11-24T11:48:47.036Z,100764.34
2022-11-24T11:51:55.048Z,100759.94
2022-11-24T11:54:30.104Z,100765.63
2022-11-24T11:57:11.607Z,100765.63
2022-11-24T12:00:06.531Z,100771.78
2022-11-24T12:02:53.892Z,100770.00
2022-11-24T12:05:21.254Z,100766.59
2022-11-24T12:08:12.498Z,100770.16
2022-11-24T12:10:53.830Z,100772.44
2022-11-24T12:13:55.272Z,100770.47
2022-11-24T12:16:49.100Z,100763.69
2022-11-24T12:19:44.924Z,100774.38
2022-11-24T12:22:17.708Z,100777.97
2022-11-24T12:24:57.564Z,100778.75
2022-11-24T12:27:55.864Z,100780.56
2022-11-24T12:30:23.078Z,100775.38
2022-11-24T12:33:01.625Z,100786.41
2022-11-24T12:35:40.904Z,100776.50
2022-11-24T12:38:27.121Z,100781.34
2022-11-24T12:41:40.324Z,100780.69
2022-11-24T12:44:02.953Z,100785.56
2022-11-24T12:46:57.072Z,100781.50
2022-11-24T12:49:38.847Z,100787.66
2022-11-24T12:52:26.975Z,100789.56
2022-11-24T12:54:55.462Z,100791.66
2022-11-24T12:57:33.384Z,100767.00
2022-11-24T13:00:15.170Z,100773.81
2022-11-24T13:02:53.845Z,100771.22
2022-11-24T13:05:32.732Z,100770.59
2022-11-24T13:08:05.464Z,100770.59
2022-11-24T13:13:28.115Z,100767.00
2022-11-24T13:16:34.654Z,100769.13
2022-11-24T13:18:55.945Z,100772.69
2022-11-24T13:21:41.068Z,100779.00
2022-11-24T13:24:17.487Z,100791.16
2022-11-24T13:26:50.817Z,100784.38
2022-11-24T13:29:40.404Z,100786.97
2022-11-24T13:32:06.901Z,100793.75
2022-11-24T13:34:39.453Z,100792.16
2022-11-24T13:37:35.258Z,100786.16
2022-11-24T13:40:31.359Z,100787.47
2022-11-24T13:42:57.941Z,100789.56
2022-11-24T13:45:39.921Z,100795.25
2022-11-24T13:48:19.308Z,100794.97
2022-11-24T13:50:54.909Z,100796.09
2022-11-24T13:53:24.206Z,100808.56
2022-11-24T13:56:14.185Z,100804.88
2022-11-24T13:58:59.766Z,100802.41
2022-11-24T14:01:32.485Z,100800.31
2022-11-24T14:06:59.075Z,100804.38
2022-11-24T14:09:35.610Z,100811.66
2022-11-24T14:12:13.950Z,100807.63
2022-11-24T14:14:41.835Z,100814.72
2022-11-24T14:17:26.645Z,100803.69
2022-11-24T14:19:55.675Z,100807.44
2022-11-24T14:22:41.232Z,100808.72
2022-11-24T14:25:23.046Z,100803.03
2022-11-24T14:27:49.720Z,100806.75
2022-11-24T14:30:18.344Z,100798.50
2022-11-24T14:33:02.427Z,100808.25
2022-11-24T14:35:42.562Z,100811.13
2022-11-24T14:38:12.535Z,100816.50
2022-11-24T14:40:48.414Z,100826.03
2022-11-24T14:43:29.351Z,100824.56
2022-11-24T14:45:59.376Z,100824.09
2022-11-24T14:48:29.625Z,100824.09
2022-11-24T14:51:24.904Z,100829.41
2022-11-24T14:53:55.201Z,100827.97
2022-11-24T14:56:24.799Z,100821.16
2022-11-24T14:58:52.234Z,100827.66
2022-11-24T15:01:28.201Z,100822.13
2022-11-24T15:04:26.957Z,100831.34
2022-11-24T15:07:15.150Z,100821.63
2022-11-24T15:09:47.919Z,100830.69
2022-11-24T15:12:36.305Z,100831.47
2022-11-24T15:15:20.512Z,100833.06
2022-11-24T15:17:49.883Z,100831.75
2022-11-24T15:20:24.588Z,100828.00
2022-11-24T15:22:52.694Z,100822.47
2022-11-24T15:25:33.951Z,100827.31
2022-11-24T15:28:01.099Z,100839.09
2022-11-24T15:30:28.506Z,100840.53
2022-11-24T15:32:57.515Z,100844.56
2022-11-24T15:35:26.572Z,100851.31
2022-11-24T15:37:53.357Z,100847.56
2022-11-24T15:40:20.612Z,100840.25
2022-11-24T15:42:53.151Z,100848.63
2022-11-24T15:45:21.317Z,100852.63
2022-11-24T15:47:48.193Z,100850.50
2022-11-24T15:50:15.384Z,100857.59
2022-11-24T15:52:42.912Z,100858.06
2022-11-24T15:55:21.319Z,100860.16
2022-11-24T15:57:48.885Z,100855.41
2022-11-24T16:00:16.936Z,100864.59
2022-11-24T16:02:43.645Z,100858.41
2022-11-24T16:05:12.923Z,100858.69
2022-11-24T16:07:39.737Z,100860.91
2022-11-24T16:10:10.833Z,100863.91
2022-11-24T16:12:37.913Z,100866.28
2022-11-24T16:15:04.918Z,100870.28
2022-11-24T16:17:52.839Z,100859.59
2022-11-24T16:20:19.739Z,100861.63
2022-11-24T16:22:46.436Z,100859.50
2022-11-24T16:25:13.722Z,100854.75
2022-11-24T16:27:40.485Z,100862.84
2022-11-24T16:30:08.781Z,100853.59
2022-11-24T16:32:35.568Z,100855.66
2022-11-24T16:35:02.655Z,100861.78
2022-11-24T16:37:29.335Z,100859.50
2022-11-24T16:39:55.984Z,100865.75
2022-11-24T16:42:22.706Z,100869.44
2022-11-24T16:44:50.260Z,100872.34
2022-11-24T16:47:16.931Z,100871.66
2022-11-24T16:49:43.704Z,100873.56
2022-11-24T16:52:10.351Z,100875.19
2022-11-24T16:54:37.179Z,100876.31
2022-11-24T16:57:03.964Z,100881.47
2022-11-24T16:59:30.567Z,100878.06
2022-11-24T17:01:57.249Z,100880.81
2022-11-24T17:04:23.915Z,100878.50
2022-11-24T17:06:50.785Z,100877.84
2022-11-24T17:09:18.885Z,100875.53
2022-11-24T17:11:45.453Z,100872.28
2022-11-24T17:14:12.360Z,100876.94
2022-11-24T17:16:39.129Z,100871.91
2022-11-24T17:19:06.296Z,100870.31
2022-11-24T17:21:33.255Z,100867.06
2022-11-24T17:24:07.400Z,100863.81
2022-11-24T17:26:35.244Z,100863.00
2022-11-24T17:29:02.067Z,100860.53
2022-11-24T17:31:32.270Z,100861.66
2022-11-24T17:34:00.385Z,100855.00
2022-11-24T17:36:27.811Z,100856.78
2022-11-24T17:38:54.431Z,100855.13
2022-11-24T17:41:22.745Z,100859.47
2022-11-24T17:43:50.784Z,100857.72
2022-11-24T17:46:18.361Z,100854.31
2022-11-24T17:48:45.051Z,100861.13
2022-11-24T17:51:13.922Z,100862.88
2022-11-24T17:53:42.275Z,100864.53
2022-11-24T17:56:13.313Z,100860.97
2022-11-24T17:58:43.087Z,100857.59
2022-11-24T18:01:11.761Z,100861.94
2022-11-24T18:03:39.913Z,100868.03
2022-11-24T18:06:08.673Z,100869.13
2022-11-24T18:08:37.249Z,100862.38
2022-11-24T18:11:31.404Z,100876.22
2022-11-24T18:14:02.089Z,100873.78
2022-11-24T18:16:31.246Z,100878.78
2022-11-24T18:19:09.844Z,100879.63
2022-11-24T18:21:41.336Z,100878.28
2022-11-24T18:24:10.277Z,100885.34
2022-11-24T18:26:37.769Z,100890.94
2022-11-24T18:29:04.502Z,100884.16
2022-11-24T18:31:32.412Z,100883.31
2022-11-24T18:33:59.766Z,100890.41
2022-11-24T18:36:30.195Z,100883.63
2022-11-24T18:39:00.107Z,100897.19
2022-11-24T18:41:27.186Z,100890.56
2022-11-24T18:43:53.974Z,100890.56
2022-11-24T18:46:20.725Z,100887.97
2022-11-24T18:48:47.501Z,100893.94
2022-11-24T18:51:14.696Z,100893.94
2022-11-24T18:53:43.120Z,100891.22
2022-11-24T18:56:17.361Z,100893.53
2022-11-24T18:58:44.476Z,100895.78
2022-11-24T19:01:15.344Z,100903.41
2022-11-24T19:03:50.222Z,100902.44
2022-11-24T19:06:21.118Z,100897.44
2022-11-24T19:08:49.018Z,100900.69
2022-11-24T19:11:21.015Z,100905.84
2022-11-24T19:13:49.155Z,100897.84
2022-11-24T19:16:17.300Z,100896.84
2022-11-24T19:18:47.647Z,100895.09
2022-11-24T19:21:19.982Z,100902.56
2022-11-24T19:23:46.745Z,100903.34
2022-11-24T19:26:13.698Z,100907.72
2022-11-24T19:28:40.270Z,100892.91
2022-11-24T19:31:12.565Z,100902.13
2022-11-24T19:33:41.080Z,100907.13
2022-11-24T19:36:10.834Z,100901.31
2022-11-24T19:38:38.296Z,100898.06
2022-11-24T19:41:08.990Z,100902.69
2022-11-24T19:43:36.119Z,100891.03
2022-11-24T19:46:13.883Z,100896.34
2022-11-24T19:48:46.199Z,100896.63
2022-11-24T19:51:25.985Z,100902.19
2022-11-24T19:53:53.515Z,100899.22
2022-11-24T19:56:22.312Z,100891.25
2022-11-24T19:58:51.036Z,100896.00
2022-11-24T20:01:21.200Z,100890.34
2022-11-24T20:03:53.491Z,100890.47
2022-11-24T20:06:20.048Z,100886.41
2022-11-24T20:08:46.746Z,100892.66
2022-11-24T20:11:16.445Z,100882.47
2022-11-24T20:13:44.641Z,100887.78
2022-11-24T20:16:17.333Z,100887.78
2022-11-24T20:18:46.153Z,100896.19
2022-11-24T20:21:18.311Z,100890.75
2022-11-24T20:23:46.989Z,100880.13
2022-11-24T20:26:19.823Z,100891.16
2022-11-24T20:28:47.425Z,100889.38
2022-11-24T20:31:20.528Z,100879.19
2022-11-24T20:33:47.638Z,100892.09
2022-11-24T20:36:17.286Z,100880.97
2022-11-24T20:38:45.374Z,100882.06
2022-11-24T20:41:15.174Z,100885.28
2022-11-24T20:43:43.409Z,100880.97
2022-11-24T20:46:30.184Z,100885.03
2022-11-24T20:48:57.624Z,100886.78
2022-11-24T20:51:27.252Z,100886.78
2022-11-24T20:53:57.155Z,100889.38
2022-11-24T20:56:32.398Z,100891.28
2022-11-24T20:58:59.943Z,100882.72
2022-11-24T21:01:43.592Z,100888.56
2022-11-24T21:04:13.487Z,100887.44
2022-11-24T21:06:40.408Z,100884.75
2022-11-24T21:09:08.322Z,100885.41
2022-11-24T21:11:35.393Z,100876.88
2022-11-24T21:14:03.232Z,100882.19
2022-11-24T21:16:35.549Z,100877.13
2022-11-24T21:19:08.876Z,100873.88
2022-11-24T21:21:37.461Z,100882.59
2022-11-24T21:24:06.466Z,100872.28
2022-11-24T21:26:37.168Z,100881.13
2022-11-24T21:29:04.404Z,100887.22
2022-11-24T21:31:35.965Z,100876.88
2022-11-24T21:34:03.215Z,100885.59
2022-11-24T21:36:31.693Z,100885.72
2022-11-24T21:38:59.176Z,100888.31
2022-11-24T21:41:27.969Z,100887.63
2022-11-24T21:43:58.145Z,100889.53
2022-11-24T21:46:25.364Z,100887.09
2022-11-24T21:48:52.141Z,100887.38
2022-11-24T21:51:20.930Z,100892.97
2022-11-24T21:53:48.404Z,100881.03
2022-11-24T21:56:20.511Z,100883.63
2022-11-24T21:58:52.588Z,100879.41
2022-11-24T22:01:21.608Z,100877.75
2022-11-24T22:03:48.566Z,100869.22
2022-11-24T22:06:17.742Z,100862.28
2022-11-24T22:08:44.559Z,100863.09
2022-11-24T22:11:23.028Z,100863.94
2022-11-24T22:13:50.392Z,100858.50
2022-11-24T22:16:19.777Z,100852.53
2022-11-24T22:18:46.578Z,100851.72
2022-11-24T22:21:16.376Z,100860.53
2022-11-24T22:23:43.529Z,100857.13
2022-11-24T22:26:17.543Z,100856.34
2022-11-24T22:28:45.141Z,100850.22
2022-11-24T22:31:17.350Z,100853.88
2022-11-24T22:33:44.544Z,100851.47
2022-11-24T22:36:12.798Z,100856.63
2022-11-24T22:38:39.750Z,100859.19
2022-11-24T22:41:10.843Z,100855.53
2022-11-24T22:43:38.687Z,100860.84
2022-11-24T22:46:08.269Z,100850.78
2022-11-24T22:48:35.370Z,100847.41
2022-11-24T22:51:07.460Z,100847.41
2022-11-24T22:53:34.557Z,100836.13
2022-11-24T22:56:07.327Z,100841.00
2022-11-24T22:58:34.308Z,100845.72
2022-11-24T23:01:29.049Z,100839.38
2022-11-24T23:03:55.922Z,100829.84
2022-11-24T23:06:24.702Z,100834.06
2022-11-24T23:08:52.462Z,100831.31
2022-11-24T23:11:31.680Z,100834.44
2022-11-24T23:14:00.907Z,100842.69
2022-11-24T23:16:29.362Z,100838.88
2022-11-24T23:18:56.320Z,100831.53
2022-11-24T23:21:25.953Z,100821.75
2022-11-24T23:23:53.952Z,100821.44
2022-11-24T23:26:26.764Z,100823.75
2022-11-24T23:28:53.446Z,100815.06
2022-11-24T23:31:24.410Z,100821.84
2022-11-24T23:33:51.073Z,100825.09
2022-11-24T23:36:19.926Z,100811.41
2022-11-24T23:38:48.957Z,100807.03
2022-11-24T23:41:18.541Z,100808.00
2022-11-24T23:43:45.360Z,100808.94
2022-11-24T23:46:16.857Z,100809.91
2022-11-24T23:48:45.476Z,100808.28
2022-11-24T23:51:18.375Z,100794.56
2022-11-24T23:53:45.564Z,100797.13
2022-11-24T23:56:14.693Z,100790.22
2022-11-24T23:58:42.040Z,100786.81
